Time;durP1;ratioP1;P1;durP2;ratioP2;P2;SDS_P1;SDS_P2;PMS_P1;PMS_P2;Temp;Humidity;BMP_temperature;BMP_pressure;BME280_temperature;BME280_humidity;BME280_pressure;Samples;Min_cycle;Max_cycle;Signal;HPM_P1;HPM_P2
2022/05/19 00:01:19;;;;;;;5.00;2.70;;;;;;;11.24;43.69;101187.45;117052;1188;21871;-54
2022/05/19 00:03:47;;;;;;;5.30;3.10;;;;;;;11.23;43.66;101189.22;117328;1186;23657;-50
2022/05/19 00:06:16;;;;;;;4.70;2.50;;;;;;;11.26;43.67;101186.57;117334;1186;24160;-50
2022/05/19 00:08:44;;;;;;;4.50;2.80;;;;;;;11.26;43.93;101187.80;117233;1186;24161;-54
2022/05/19 00:11:15;;;;;;;4.70;2.70;;;;;;;11.27;43.73;101188.86;117334;1186;23542;-50
2022/05/19 00:13:43;;;;;;;4.70;2.70;;;;;;;11.29;44.01;101185.49;117397;1185;22974;-50
2022/05/19 00:16:12;;;;;;;5.60;2.80;;;;;;;11.30;44.05;101182.16;117372;1185;23436;-55
2022/05/19 00:18:41;;;;;;;3.20;2.40;;;;;;;11.31;44.00;101178.82;117477;1185;22616;-50
2022/05/19 00:21:10;;;;;;;7.50;3.20;;;;;;;11.33;43.98;101178.64;117591;1186;22614;-50
2022/05/19 00:23:39;;;;;;;4.30;2.70;;;;;;;11.34;43.96;101180.75;117432;1186;21893;-54
2022/05/19 00:26:07;;;;;;;5.60;3.00;;;;;;;11.34;43.90;101178.29;117377;1185;23551;-50
2022/05/19 00:28:36;;;;;;;4.30;3.00;;;;;;;11.34;44.16;101179.16;117531;1186;24136;-54
2022/05/19 00:31:04;;;;;;;4.90;2.70;;;;;;;11.35;44.13;101179.17;117572;1186;24149;-54
2022/05/19 00:33:34;;;;;;;4.40;3.00;;;;;;;11.35;44.06;101175.13;117368;1185;23460;-50
2022/05/19 00:36:16;;;;;;;5.50;2.80;;;;;;;11.34;44.08;101178.11;117435;1188;22951;-50
2022/05/19 00:38:46;;;;;;;5.40;2.90;;;;;;;11.34;44.08;101180.58;117505;1186;22919;-55
2022/05/19 00:41:14;;;;;;;8.20;3.20;;;;;;;11.32;44.04;101184.09;117272;1185;22180;-50
2022/05/19 00:43:45;;;;;;;4.80;2.60;;;;;;;11.30;44.03;101182.16;117372;1185;21883;-50
2022/05/19 00:46:22;;;;;;;3.70;2.90;;;;;;;11.27;44.00;101187.09;117311;1186;21856;-55
2022/05/19 00:49:02;;;;;;;5.30;3.10;;;;;;;11.22;44.17;101188.69;117359;1185;23510;-50
2022/05/19 00:52:13;;;;;;;5.30;3.00;;;;;;;11.18;44.21;101186.77;117399;1185;21862;-55
2022/05/19 00:54:44;;;;;;;4.30;2.90;;;;;;;11.15;44.33;101191.69;116815;1189;21860;-55
2022/05/19 00:57:20;;;;;;;4.20;2.80;;;;;;;11.12;44.28;101192.92;116798;1190;21847;-50
2022/05/19 00:59:55;;;;;;;5.30;2.80;;;;;;;11.12;44.34;101190.10;117086;1187;22551;-50
2022/05/19 01:02:25;;;;;;;4.90;3.00;;;;;;;11.10;44.34;101189.41;117347;1186;23040;-51
2022/05/19 01:05:02;;;;;;;6.80;3.00;;;;;;;11.11;44.41;101186.42;117512;1186;23459;-51
2022/05/19 01:07:34;;;;;;;4.50;3.00;;;;;;;11.10;44.24;101188.18;117494;1184;21846;-55
2022/05/19 01:10:03;;;;;;;6.30;3.40;;;;;;;11.09;44.37;101191.52;117320;1185;22934;-50
2022/05/19 01:12:32;;;;;;;4.00;3.10;;;;;;;11.06;44.47;101191.51;117389;1184;21848;-55
2022/05/19 01:15:01;;;;;;;7.20;2.90;;;;;;;11.04;44.30;101192.21;117431;1186;22882;-50
2022/05/19 01:17:31;;;;;;;5.20;3.70;;;;;;;11.03;44.52;101190.65;117449;1185;21939;-50
2022/05/19 01:20:03;;;;;;;6.80;3.00;;;;;;;11.04;44.52;101196.44;117344;1185;22915;-54
2022/05/19 01:22:40;;;;;;;5.60;3.10;;;;;;;11.05;44.49;101195.20;117433;1183;23560;-54
2022/05/19 01:25:11;;;;;;;4.30;3.20;;;;;;;11.04;44.58;101198.73;117468;1185;23435;-55
2022/05/19 01:27:40;;;;;;;6.00;3.30;;;;;;;11.04;44.59;101202.95;117459;1184;23557;-54
2022/05/19 01:30:09;;;;;;;4.80;3.00;;;;;;;11.02;44.58;101206.64;117301;1186;23463;-53
2022/05/19 01:32:38;;;;;;;4.50;3.00;;;;;;;11.00;44.63;101206.65;117380;1186;22619;-54
2022/05/19 01:35:07;;;;;;;5.10;3.50;;;;;;;10.99;44.50;101208.39;117452;1185;23538;-55
2022/05/19 01:37:36;;;;;;;5.80;3.80;;;;;;;10.97;44.72;101207.16;117394;1185;24201;-55
2022/05/19 01:40:14;;;;;;;4.90;3.00;;;;;;;10.98;44.61;101210.14;117389;1185;22531;-54
2022/05/19 01:42:52;;;;;;;4.50;3.20;;;;;;;10.98;44.55;101204.17;117448;1185;21867;-50
2022/05/19 01:45:45;;;;;;;7.10;3.20;;;;;;;10.97;44.78;101204.71;117448;1185;23563;-55
2022/05/19 01:48:40;;;;;;;6.90;3.30;;;;;;;10.95;44.55;101209.10;117376;1185;23466;-50
2022/05/19 01:51:14;;;;;;;4.20;3.10;;;;;;;10.90;44.76;101209.11;117329;1187;21868;-54
2022/05/19 01:54:10;;;;;;;5.80;2.90;;;;;;;10.93;44.75;101206.98;117441;1185;21838;-54
2022/05/19 01:56:43;;;;;;;4.00;3.20;;;;;;;10.91;44.77;101207.88;117362;1185;24161;-50
2022/05/19 01:59:11;;;;;;;7.60;3.20;;;;;;;10.90;44.83;101209.09;117383;1186;22919;-54
2022/05/19 02:01:42;;;;;;;4.60;2.70;;;;;;;10.90;44.70;101208.21;117416;1186;21852;-50
2022/05/19 02:04:17;;;;;;;4.70;3.40;;;;;;;10.92;44.77;101210.68;117341;1185;21893;-50
2022/05/19 02:06:48;;;;;;;5.40;3.50;;;;;;;10.92;44.84;101212.27;117359;1183;23261;-50
2022/05/19 02:09:23;;;;;;;5.60;3.50;;;;;;;10.89;44.84;101217.35;117423;1186;21864;-55
2022/05/19 02:11:54;;;;;;;4.70;3.00;;;;;;;10.85;44.77;101217.00;117400;1185;21942;-50
2022/05/19 02:14:29;;;;;;;6.10;3.50;;;;;;;10.82;44.82;101220.33;117231;1185;21939;-50
2022/05/19 02:16:59;;;;;;;6.90;4.00;;;;;;;10.80;44.80;101222.09;117355;1185;22986;-54
2022/05/19 02:19:30;;;;;;;6.10;3.20;;;;;;;10.79;44.86;101223.85;117398;1185;21844;-54
2022/05/19 02:21:58;;;;;;;5.30;2.90;;;;;;;10.79;44.92;101227.01;117216;1186;23011;-51
2022/05/19 02:24:26;;;;;;;9.60;3.70;;;;;;;10.80;44.80;101229.64;117260;1186;21851;-54
2022/05/19 02:26:54;;;;;;;6.60;3.50;;;;;;;10.78;44.88;101225.61;117316;1186;23621;-50
2022/05/19 02:29:23;;;;;;;5.10;3.30;;;;;;;10.77;44.80;101226.30;117330;1186;23621;-50
2022/05/19 02:31:53;;;;;;;4.50;2.90;;;;;;;10.76;44.86;101229.12;117388;1182;21921;-50
2022/05/19 02:34:21;;;;;;;4.10;3.00;;;;;;;10.74;44.86;101232.62;117330;1186;23557;-55
2022/05/19 02:36:50;;;;;;;4.40;3.20;;;;;;;10.72;44.88;101234.73;117309;1186;24278;-55
2022/05/19 02:39:18;;;;;;;4.80;2.80;;;;;;;10.69;45.03;101234.02;117431;1185;23544;-54
2022/05/19 02:41:46;;;;;;;3.90;2.70;;;;;;;10.68;45.01;101236.48;117370;1184;24214;-55
2022/05/19 02:44:15;;;;;;;4.70;3.10;;;;;;;10.67;44.96;101238.23;117352;1186;23545;-55
2022/05/19 02:46:44;;;;;;;6.70;3.10;;;;;;;10.66;45.07;101245.77;117431;1185;24138;-51
2022/05/19 02:49:12;;;;;;;4.20;3.20;;;;;;;10.67;45.05;101248.23;117408;1185;24159;-55
2022/05/19 02:51:40;;;;;;;5.60;3.00;;;;;;;10.68;45.09;101251.76;117388;1186;21848;-50
2022/05/19 02:54:11;;;;;;;4.80;3.10;;;;;;;10.70;45.30;101254.90;117446;1185;24189;-50
2022/05/19 02:56:39;;;;;;;4.30;2.70;;;;;;;10.75;45.29;101257.36;117535;1184;23443;-55
2022/05/19 02:59:07;;;;;;;5.90;3.20;;;;;;;10.80;45.25;101257.73;117427;1186;23637;-55
2022/05/19 03:01:35;;;;;;;4.10;3.00;;;;;;;10.85;45.30;101261.41;117319;1186;24149;-50
2022/05/19 03:04:04;;;;;;;5.70;3.00;;;;;;;10.88;45.17;101260.88;117317;1185;23472;-53
2022/05/19 03:06:34;;;;;;;5.60;3.00;;;;;;;10.93;45.25;101264.23;117318;1186;22799;-54
2022/05/19 03:09:04;;;;;;;4.40;3.00;;;;;;;10.96;45.29;101262.83;117344;1182;23538;-55
2022/05/19 03:11:33;;;;;;;3.60;2.90;;;;;;;11.00;45.39;101263.38;117492;1186;21858;-54
2022/05/19 03:14:01;;;;;;;5.40;3.70;;;;;;;11.03;45.25;101263.35;117482;1186;22062;-55
2022/05/19 03:16:30;;;;;;;4.00;3.10;;;;;;;11.07;45.43;101265.64;117393;1185;23554;-55
2022/05/19 03:18:58;;;;;;;5.20;3.00;;;;;;;11.12;45.43;101268.61;118042;1185;23531;-55
2022/05/19 03:21:27;;;;;;;4.60;3.10;;;;;;;11.17;45.50;101268.80;117392;1183;22308;-56
2022/05/19 03:23:55;;;;;;;4.30;3.00;;;;;;;11.21;45.71;101268.98;117277;1186;23606;-55
2022/05/19 03:26:24;;;;;;;7.90;3.40;;;;;;;11.27;45.62;101267.56;117215;1186;23553;-55
2022/05/19 03:28:52;;;;;;;3.50;2.70;;;;;;;11.34;45.78;101267.02;117471;1186;23559;-55
2022/05/19 03:31:20;;;;;;;5.60;3.30;;;;;;;11.41;45.90;101268.42;117422;1185;23682;-55
2022/05/19 03:33:50;;;;;;;5.90;3.30;;;;;;;11.45;45.76;101274.40;117276;1186;23257;-56
2022/05/19 03:36:19;;;;;;;5.10;3.30;;;;;;;11.53;45.97;101278.41;117320;1186;22886;-55
2022/05/19 03:38:47;;;;;;;5.70;3.00;;;;;;;11.61;46.12;101280.16;117447;1184;22012;-55
2022/05/19 03:41:16;;;;;;;6.50;3.30;;;;;;;11.68;45.96;101281.04;118585;1184;23541;-56
2022/05/19 03:43:44;;;;;;;7.60;3.60;;;;;;;11.76;45.99;101277.48;118281;1185;21852;-55
2022/05/19 03:46:13;;;;;;;5.00;2.70;;;;;;;11.85;45.98;101274.30;117340;1185;21847;-55
2022/05/19 03:48:43;;;;;;;4.60;3.30;;;;;;;11.94;46.14;101276.20;117397;1185;22053;-53
2022/05/19 03:51:22;;;;;;;7.90;3.60;;;;;;;12.02;46.18;101274.27;117475;1186;24150;-54
2022/05/19 03:53:51;;;;;;;5.30;3.70;;;;;;;12.13;46.15;101275.63;117335;1185;21861;-50
2022/05/19 03:56:21;;;;;;;4.60;3.30;;;;;;;12.25;46.36;101276.98;117414;1186;23545;-50
2022/05/19 03:58:49;;;;;;;8.20;3.40;;;;;;;12.37;46.36;101277.27;117423;1184;21847;-51
2022/05/19 04:01:19;;;;;;;7.10;3.90;;;;;;;12.49;46.02;101274.73;117414;1185;21878;-51
2022/05/19 04:03:50;;;;;;;6.60;2.80;;;;;;;12.60;46.16;101275.73;117386;1186;23622;-55
2022/05/19 04:06:19;;;;;;;5.20;2.80;;;;;;;12.72;46.32;101278.48;117305;1186;21851;-51
2022/05/19 04:08:47;;;;;;;7.00;2.90;;;;;;;12.85;46.36;101282.60;117496;1186;22924;-52
2022/05/19 04:11:15;;;;;;;5.20;2.60;;;;;;;12.97;46.40;101287.09;117436;1184;24174;-52
2022/05/19 04:13:45;;;;;;;8.00;3.10;;;;;;;13.10;46.39;101290.88;117345;1186;23541;-56
2022/05/19 04:16:14;;;;;;;5.40;2.70;;;;;;;13.23;46.44;101290.77;117398;1185;23553;-52
2022/05/19 04:18:42;;;;;;;4.50;2.60;;;;;;;13.33;46.28;101293.14;117529;1186;21848;-53
2022/05/19 04:21:11;;;;;;;4.10;2.90;;;;;;;13.43;46.34;101297.13;117453;1186;22917;-52
2022/05/19 04:23:39;;;;;;;8.90;3.00;;;;;;;13.53;46.22;101294.04;117364;1187;22915;-52
2022/05/19 04:26:11;;;;;;;4.60;2.90;;;;;;;13.64;46.26;101296.41;117456;1185;22889;-56
2022/05/19 04:28:40;;;;;;;4.00;2.60;;;;;;;13.75;46.21;101298.92;117455;1186;21851;-54
2022/05/19 04:31:08;;;;;;;5.20;2.60;;;;;;;13.86;46.07;101301.80;117405;1185;21850;-53
2022/05/19 04:33:37;;;;;;;3.20;2.30;;;;;;;13.98;46.04;101296.38;117370;1184;23554;-52
2022/05/19 04:36:07;;;;;;;5.70;3.40;;;;;;;14.11;46.16;101297.83;117540;1186;24157;-55
2022/05/19 04:38:35;;;;;;;6.20;2.60;;;;;;;14.20;46.07;101296.83;117557;1185;21993;-53
2022/05/19 04:41:04;;;;;;;4.30;3.20;;;;;;;14.28;46.02;101297.08;117413;1185;21851;-55
2022/05/19 04:43:32;;;;;;;3.20;2.20;;;;;;;14.37;46.10;101301.89;117368;1185;23700;-55
2022/05/19 04:46:00;;;;;;;4.00;2.20;;;;;;;14.48;45.94;101304.05;117469;1184;23563;-56
2022/05/19 04:48:29;;;;;;;3.70;2.60;;;;;;;14.59;46.25;101299.64;117345;1185;24170;-55
2022/05/19 04:50:59;;;;;;;7.70;3.40;;;;;;;14.72;46.07;101301.98;117394;1185;23443;-55
2022/05/19 04:53:27;;;;;;;4.10;2.30;;;;;;;14.82;46.06;101301.64;117354;1186;22339;-56
2022/05/19 04:55:55;;;;;;;3.70;2.30;;;;;;;14.93;46.01;101304.66;117509;1185;24140;-56
2022/05/19 04:58:24;;;;;;;4.40;2.30;;;;;;;15.04;45.83;101304.13;117334;1185;23556;-52
2022/05/19 05:00:52;;;;;;;4.40;2.70;;;;;;;15.16;45.84;101304.64;117373;1186;21948;-53
2022/05/19 05:03:21;;;;;;;4.20;2.40;;;;;;;15.28;45.83;101304.09;117468;1185;23583;-56
2022/05/19 05:05:50;;;;;;;4.90;2.60;;;;;;;15.41;45.82;101303.69;117412;1185;24160;-53
2022/05/19 05:08:18;;;;;;;4.20;2.70;;;;;;;15.53;45.88;101303.12;117365;1184;24132;-53
2022/05/19 05:10:52;;;;;;;5.00;2.30;;;;;;;15.68;45.75;101297.89;117429;1184;23633;-56
2022/05/19 05:13:20;;;;;;;3.50;2.50;;;;;;;15.80;45.76;101299.98;117500;1184;23611;-52
2022/05/19 05:15:48;;;;;;;4.40;2.40;;;;;;;15.91;45.80;101304.92;117501;1186;23545;-55
2022/05/19 05:18:16;;;;;;;3.20;2.10;;;;;;;16.02;45.61;101301.86;117385;1185;23800;-55
2022/05/19 05:20:45;;;;;;;3.20;2.30;;;;;;;16.11;45.43;101300.48;117483;1185;21849;-53
2022/05/19 05:23:13;;;;;;;2.80;2.00;;;;;;;16.20;45.47;101299.38;117514;1186;23579;-54
2022/05/19 05:25:41;;;;;;;3.00;1.90;;;;;;;16.33;45.62;101297.16;117397;1186;22917;-56
2022/05/19 05:28:10;;;;;;;3.40;2.20;;;;;;;16.47;45.52;101301.64;117391;1186;23538;-55
2022/05/19 05:30:38;;;;;;;3.70;2.10;;;;;;;16.62;45.43;101296.52;117430;1186;23567;-54
2022/05/19 05:33:08;;;;;;;3.40;2.20;;;;;;;16.75;45.27;101296.05;117407;1188;23004;-55
2022/05/19 05:35:36;;;;;;;4.30;2.00;;;;;;;16.86;45.30;101294.73;117342;1185;22816;-53
2022/05/19 05:38:06;;;;;;;3.40;2.00;;;;;;;16.96;45.18;101296.27;117240;1186;21877;-57
2022/05/19 05:40:36;;;;;;;3.00;2.00;;;;;;;17.10;45.22;101298.61;117449;1186;23525;-54
2022/05/19 05:43:18;;;;;;;5.40;2.20;;;;;;;17.22;45.12;101298.84;117346;1189;21850;-56
2022/05/19 05:45:47;;;;;;;5.80;2.20;;;;;;;17.33;45.06;101298.36;117322;1185;21839;-56
2022/05/19 05:48:15;;;;;;;3.70;2.30;;;;;;;17.47;45.02;101300.15;117430;1185;23005;-56
2022/05/19 05:50:43;;;;;;;4.80;1.60;;;;;;;17.61;45.05;101295.89;117503;1185;22932;-54
2022/05/19 05:53:12;;;;;;;2.40;1.80;;;;;;;17.74;44.79;101295.52;117439;1186;23595;-54
2022/05/19 05:55:40;;;;;;;6.10;2.10;;;;;;;17.85;44.73;101293.98;117377;1185;23546;-56
2022/05/19 05:58:09;;;;;;;4.80;2.30;;;;;;;17.94;44.63;101291.95;117385;1186;23582;-54
2022/05/19 06:00:38;;;;;;;5.70;2.30;;;;;;;18.08;44.63;101288.91;117491;1186;21847;-56
2022/05/19 06:03:07;;;;;;;5.30;2.00;;;;;;;18.23;44.70;101288.66;117328;1185;23454;-54
2022/05/19 06:05:36;;;;;;;2.80;1.90;;;;;;;18.41;44.56;101294.52;117317;1186;23656;-56
2022/05/19 06:08:05;;;;;;;3.00;1.60;;;;;;;18.54;44.53;101290.55;117483;1185;23557;-56
2022/05/19 06:10:35;;;;;;;2.80;1.60;;;;;;;18.68;44.30;101294.21;117356;1185;22892;-56
2022/05/19 06:13:04;;;;;;;2.40;1.50;;;;;;;18.83;44.33;101292.69;117324;1186;23541;-56
2022/05/19 06:15:32;;;;;;;2.80;1.60;;;;;;;18.99;44.46;101296.61;117377;1186;22904;-55
2022/05/19 06:18:01;;;;;;;3.60;1.40;;;;;;;19.23;44.35;101292.10;117409;1185;21843;-56
2022/05/19 06:20:30;;;;;;;3.50;1.90;;;;;;;19.44;44.31;101292.30;117330;1185;23576;-54
2022/05/19 06:22:58;;;;;;;5.50;1.90;;;;;;;19.56;44.06;101287.05;117319;1186;23566;-54
2022/05/19 06:25:27;;;;;;;2.40;1.60;;;;;;;19.64;43.71;101289.30;117349;1185;23558;-54
2022/05/19 06:27:56;;;;;;;3.90;1.90;;;;;;;19.67;43.63;101290.05;117341;1185;23544;-54
2022/05/19 06:30:24;;;;;;;3.80;1.70;;;;;;;19.75;43.61;101290.98;117287;1185;21862;-55
2022/05/19 06:32:52;;;;;;;2.90;1.40;;;;;;;19.87;43.42;101290.94;117326;1181;23534;-54
2022/05/19 06:35:24;;;;;;;4.40;1.60;;;;;;;19.97;43.37;101289.00;117341;1185;22918;-54
2022/05/19 06:37:52;;;;;;;3.80;1.50;;;;;;;20.08;43.22;101286.98;117388;1185;23654;-53
2022/05/19 06:40:21;;;;;;;3.00;1.50;;;;;;;20.21;43.36;101291.83;117368;1186;23639;-54
2022/05/19 06:42:50;;;;;;;3.40;1.60;;;;;;;20.35;43.31;101292.19;117351;1185;21855;-56
2022/05/19 06:45:22;;;;;;;2.10;1.20;;;;;;;20.49;43.08;101290.75;117405;1184;23566;-57
2022/05/19 06:47:50;;;;;;;2.60;1.30;;;;;;;20.64;42.96;101285.91;117346;1185;21871;-56
2022/05/19 06:50:21;;;;;;;1.50;1.10;;;;;;;20.81;42.90;101291.30;117374;1185;21851;-54
2022/05/19 06:53:03;;;;;;;2.40;1.40;;;;;;;21.00;42.97;101290.89;117410;1179;21883;-55
2022/05/19 06:55:32;;;;;;;4.40;1.30;;;;;;;21.16;42.91;101292.36;117276;1186;22652;-55
2022/05/19 06:58:01;;;;;;;4.00;1.30;;;;;;;21.29;42.70;101291.98;117353;1185;23466;-55
2022/05/19 07:00:29;;;;;;;1.70;1.10;;;;;;;21.40;42.44;101294.23;117350;1185;22085;-57
2022/05/19 07:02:59;;;;;;;3.40;1.30;;;;;;;21.46;42.33;101296.44;117357;1185;23541;-54
2022/05/19 07:05:30;;;;;;;2.60;1.20;;;;;;;21.61;42.53;101294.91;117249;1185;23733;-57
2022/05/19 07:07:58;;;;;;;1.80;1.30;;;;;;;21.79;42.39;101295.92;117352;1185;22937;-55
2022/05/19 07:10:26;;;;;;;3.80;1.30;;;;;;;21.90;42.14;101298.09;117482;1186;23999;-56
2022/05/19 07:12:55;;;;;;;2.10;1.40;;;;;;;22.02;41.83;101291.69;117532;1183;21906;-56
2022/05/19 07:15:23;;;;;;;3.60;1.30;;;;;;;22.07;41.63;101292.55;117379;1185;23545;-55
2022/05/19 07:17:51;;;;;;;2.10;1.30;;;;;;;22.14;41.80;101291.66;117308;1190;23640;-55
2022/05/19 07:23:08;;;;;;;6.20;1.30;;;;;;;22.12;40.81;101299.45;117515;1186;23537;-56
2022/05/19 07:25:36;;;;;;;1.60;1.20;;;;;;;21.98;40.42;101299.91;117440;1184;23244;-56
2022/05/19 07:28:05;;;;;;;1.80;1.30;;;;;;;21.80;40.38;101298.20;117298;1186;23797;-56
2022/05/19 07:30:33;;;;;;;2.10;1.00;;;;;;;21.76;40.53;101302.65;117364;1183;23007;-56
2022/05/19 07:33:02;;;;;;;3.00;1.10;;;;;;;21.73;40.19;101304.23;117422;1185;21890;-54
2022/05/19 07:35:31;;;;;;;1.60;1.00;;;;;;;21.59;39.89;101308.39;117328;1184;24160;-56
2022/05/19 07:37:59;;;;;;;4.80;1.40;;;;;;;21.44;39.76;101310.80;117473;1186;24144;-54
2022/05/19 07:40:27;;;;;;;4.60;1.40;;;;;;;21.27;39.64;101312.44;117418;1186;23093;-55
2022/05/19 07:43:35;;;;;;;4.60;1.30;;;;;;;21.06;39.39;101309.90;117273;1186;24163;-55
2022/05/19 07:45:46;;;;;;;3.60;1.20;;;;;;;21.05;39.85;101309.44;117293;1186;24169;-55
2022/05/19 07:48:15;;;;;;;3.20;1.20;;;;;;;21.25;40.04;101305.40;117442;1186;24017;-55
2022/05/19 07:50:43;;;;;;;4.40;1.40;;;;;;;21.56;40.10;101306.90;117502;1186;24164;-56
2022/05/19 07:53:11;;;;;;;4.80;1.10;;;;;;;21.85;39.98;101305.31;117402;1186;23460;-56
2022/05/19 07:55:40;;;;;;;2.00;0.90;;;;;;;21.94;39.77;101305.25;117396;1185;23544;-56
2022/05/19 07:58:08;;;;;;;1.60;0.80;;;;;;;21.98;39.85;101302.23;117384;1185;21836;-56
2022/05/19 08:00:37;;;;;;;1.30;0.70;;;;;;;22.19;40.01;101299.84;117372;1186;24163;-56
2022/05/19 08:03:06;;;;;;;3.50;1.70;;;;;;;22.53;39.81;101300.95;117305;1185;24172;-57
2022/05/19 08:05:35;;;;;;;1.90;1.10;;;;;;;22.79;39.33;101298.99;117284;1186;24227;-55
2022/05/19 08:08:05;;;;;;;2.10;1.10;;;;;;;22.82;39.19;101305.27;117256;1186;23594;-56
2022/05/19 08:10:34;;;;;;;2.80;1.00;;;;;;;22.84;39.42;101302.49;117335;1186;23894;-56
2022/05/19 08:15:54;;;;;;;1.30;0.70;;;;;;;23.25;39.03;101304.80;117298;1186;21906;-55
2022/05/19 08:18:24;;;;;;;2.30;1.00;;;;;;;23.21;38.98;101305.52;117388;1185;21923;-55
2022/05/19 08:20:57;;;;;;;2.60;1.00;;;;;;;23.18;39.04;101298.46;117409;1186;21849;-55
2022/05/19 08:23:32;;;;;;;2.60;1.00;;;;;;;23.13;38.41;101297.86;117303;1186;23617;-56
2022/05/19 08:26:01;;;;;;;2.40;1.00;;;;;;;23.06;38.53;101303.41;117269;1182;22921;-56
2022/05/19 08:28:32;;;;;;;2.40;1.10;;;;;;;23.16;38.94;101303.23;117427;1185;23566;-56
2022/05/19 08:31:02;;;;;;;1.20;0.90;;;;;;;23.30;38.80;101302.38;117457;1185;21852;-56
2022/05/19 08:33:31;;;;;;;2.60;0.80;;;;;;;23.30;38.40;101300.41;117335;1185;24180;-55
2022/05/19 08:35:59;;;;;;;2.10;0.90;;;;;;;23.19;37.74;101299.70;117343;1183;21854;-55
2022/05/19 08:38:28;;;;;;;2.00;1.00;;;;;;;22.96;37.43;101296.38;117376;1185;23541;-54
2022/05/19 08:41:04;;;;;;;3.30;1.10;;;;;;;22.80;37.72;101295.55;117413;1185;23465;-55
2022/05/19 08:43:49;;;;;;;3.60;0.90;;;;;;;22.90;38.23;101296.86;117287;1184;21965;-55
2022/05/19 08:46:27;;;;;;;1.60;0.80;;;;;;;23.27;38.67;101295.73;117356;1185;21928;-54
2022/05/19 08:48:59;;;;;;;2.50;1.10;;;;;;;23.79;38.61;101294.85;117369;1185;21858;-55
2022/05/19 08:51:34;;;;;;;4.00;1.00;;;;;;;24.23;38.33;101281.56;117231;1186;21852;-54
2022/05/19 08:54:04;;;;;;;1.70;0.70;;;;;;;24.32;37.67;101279.96;117204;1185;21848;-55
2022/05/19 08:56:40;;;;;;;3.20;0.90;;;;;;;24.15;37.08;101280.73;117333;1185;21850;-54
2022/05/19 08:59:39;;;;;;;2.50;0.90;;;;;;;23.94;37.16;101283.11;117425;1185;22868;-55
2022/05/19 09:02:17;;;;;;;0.90;0.70;;;;;;;23.80;37.28;101285.27;117163;1189;24156;-57
2022/05/19 09:04:58;;;;;;;4.30;1.10;;;;;;;23.65;37.23;101284.13;117169;1186;22911;-55
2022/05/19 09:10:34;;;;;;;1.70;0.90;;;;;;;23.65;37.53;101280.02;117427;1186;21862;-56
2022/05/19 09:13:41;;;;;;;1.50;0.80;;;;;;;23.71;37.30;101284.19;117351;1186;23557;-56
2022/05/19 09:16:22;;;;;;;8.70;1.20;;;;;;;23.59;36.65;101278.70;117344;1185;22928;-56
2022/05/19 09:19:01;;;;;;;4.10;1.30;;;;;;;23.56;36.89;101273.52;117320;1183;22918;-56
2022/05/19 09:21:29;;;;;;;1.40;0.90;;;;;;;23.81;37.03;101269.84;117285;1183;21880;-56
2022/05/19 09:23:58;;;;;;;1.90;0.90;;;;;;;24.19;37.29;101270.69;117076;1188;24006;-56
2022/05/19 09:26:35;;;;;;;1.30;0.80;;;;;;;24.47;37.07;101265.69;117315;1186;23569;-57
2022/05/19 09:29:07;;;;;;;1.80;0.80;;;;;;;24.67;36.90;101268.51;117235;1185;23644;-58
2022/05/19 09:32:02;;;;;;;2.10;0.90;;;;;;;24.83;36.97;101268.02;117332;1186;23622;-53
2022/05/19 09:34:33;;;;;;;1.90;0.70;;;;;;;24.97;36.93;101264.67;117248;1185;21928;-56
2022/05/19 09:37:06;;;;;;;2.10;0.90;;;;;;;25.11;36.61;101263.14;117314;1185;22909;-55
2022/05/19 09:39:51;;;;;;;1.50;1.00;;;;;;;25.09;35.95;101260.55;117216;1186;23536;-55
2022/05/19 09:42:23;;;;;;;4.00;0.90;;;;;;;24.83;35.90;101268.00;117342;1185;22828;-56
2022/05/19 09:44:55;;;;;;;2.00;0.90;;;;;;;24.53;35.62;101260.72;117384;1185;23481;-55
2022/05/19 09:47:33;;;;;;;5.80;1.10;;;;;;;24.39;35.81;101260.39;117249;1185;21913;-56
2022/05/19 09:50:24;;;;;;;1.60;0.80;;;;;;;24.52;35.94;101254.48;117075;1189;22838;-55
2022/05/19 09:52:52;;;;;;;2.30;1.10;;;;;;;24.80;35.65;101247.87;117314;1185;23465;-55
2022/05/19 09:55:21;;;;;;;1.40;0.70;;;;;;;25.04;35.86;101245.23;117223;1188;21884;-56
2022/05/19 09:57:50;;;;;;;3.10;0.90;;;;;;;25.27;35.29;101244.94;117277;1181;21852;-56
2022/05/19 10:00:24;;;;;;;4.80;0.90;;;;;;;25.40;35.49;101243.97;117323;1185;23567;-56
2022/05/19 10:02:56;;;;;;;3.10;0.70;;;;;;;25.61;35.25;101240.38;117346;1185;21859;-55
2022/05/19 10:05:41;;;;;;;1.40;0.80;;;;;;;25.84;35.55;101238.05;117310;1185;23544;-56
2022/05/19 10:08:36;;;;;;;1.00;0.70;;;;;;;25.99;35.41;101231.02;117306;1186;21867;-56
2022/05/19 10:11:13;;;;;;;3.20;0.80;;;;;;;25.88;34.67;101232.27;117355;1185;21935;-57
2022/05/19 10:13:54;;;;;;;2.00;1.00;;;;;;;25.69;34.37;101233.38;117319;1186;23996;-56
2022/05/19 10:16:50;;;;;;;1.40;0.90;;;;;;;25.58;34.26;101234.25;117386;1185;21856;-56
2022/05/19 10:19:23;;;;;;;1.20;0.70;;;;;;;25.35;34.08;101227.73;117287;1186;22944;-57
2022/05/19 10:22:12;;;;;;;2.70;0.70;;;;;;;25.18;33.94;101225.02;117322;1186;21854;-57
2022/05/19 10:25:18;;;;;;;1.80;0.70;;;;;;;25.01;33.50;101223.83;117344;1185;22980;-56
2022/05/19 10:31:35;;;;;;;1.00;0.70;;;;;;;25.08;34.24;101215.73;117300;1185;23441;-57
2022/05/19 10:34:45;;;;;;;0.90;0.60;;;;;;;25.18;33.64;101218.71;117212;1185;22101;-55
2022/05/19 10:37:20;;;;;;;2.50;0.90;;;;;;;25.12;33.62;101207.79;117233;1185;21854;-56
2022/05/19 10:40:10;;;;;;;9.40;1.80;;;;;;;25.37;33.80;101211.27;117283;1185;23548;-57
2022/05/19 10:43:09;;;;;;;2.00;1.00;;;;;;;25.80;33.37;101209.36;117518;1184;23622;-55
2022/05/19 10:45:40;;;;;;;2.80;0.80;;;;;;;26.15;33.42;101208.75;117321;1182;23260;-57
2022/05/19 10:48:27;;;;;;;3.50;0.90;;;;;;;26.21;32.73;101207.13;117434;1185;21924;-56
2022/05/19 10:51:06;;;;;;;1.70;0.90;;;;;;;26.01;32.51;101208.05;117346;1185;22889;-57
2022/05/19 10:53:36;;;;;;;0.90;0.70;;;;;;;25.81;32.84;101199.02;117287;1186;21865;-54
2022/05/19 10:56:27;;;;;;;1.30;0.70;;;;;;;25.62;32.78;101201.52;117370;1186;23567;-55
2022/05/19 10:59:17;;;;;;;2.70;1.10;;;;;;;25.39;32.68;101203.61;117369;1185;21884;-57
2022/05/19 11:01:48;;;;;;;;;;;;;;;25.34;32.87;101203.55;117318;1185;22601;-55
2022/05/19 11:04:45;;;;;;;3.60;0.80;;;;;;;25.53;33.02;101197.18;117335;1185;21839;-56
2022/05/19 11:07:30;;;;;;;1.80;0.70;;;;;;;25.69;33.11;101196.73;117150;1185;23451;-56
2022/05/19 11:10:08;;;;;;;2.10;0.90;;;;;;;25.86;33.03;101191.17;117350;1182;23541;-55
2022/05/19 11:12:58;;;;;;;2.90;0.90;;;;;;;26.09;32.55;101192.05;117375;1185;21973;-56
2022/05/19 11:15:38;;;;;;;1.90;0.90;;;;;;;26.20;32.05;101188.65;117337;1185;21854;-56
2022/05/19 11:18:20;;;;;;;3.70;1.80;;;;;;;26.18;32.34;101189.34;117293;1186;21838;-56
2022/05/19 11:21:10;;;;;;;43.40;32.10;;;;;;;26.14;32.42;101193.58;117318;1185;21861;-55
2022/05/19 11:23:57;;;;;;;11.80;5.30;;;;;;;26.26;32.75;101187.42;117323;1182;24197;-55
2022/05/19 11:26:39;;;;;;;2.10;1.40;;;;;;;26.51;32.85;101183.96;117390;1185;21852;-57
2022/05/19 11:29:32;;;;;;;2.20;1.40;;;;;;;26.71;32.48;101179.73;117345;1180;22302;-55
2022/05/19 11:32:20;;;;;;;2.40;1.40;;;;;;;26.77;32.01;101176.45;117360;1185;24162;-56
2022/05/19 11:35:00;;;;;;;2.20;0.90;;;;;;;26.72;32.20;101177.65;117317;1186;21880;-57
2022/05/19 11:37:50;;;;;;;2.30;1.10;;;;;;;26.74;32.39;101173.96;117367;1185;21857;-56
2022/05/19 11:40:45;;;;;;;1.60;0.80;;;;;;;26.93;32.62;101166.73;117394;1185;23080;-57
2022/05/19 11:43:21;;;;;;;2.20;0.80;;;;;;;27.37;32.77;101162.81;117272;1185;24193;-57
2022/05/19 11:46:00;;;;;;;1.90;0.80;;;;;;;27.74;32.65;101162.20;117241;1186;22910;-56
2022/05/19 11:55:18;;;;;;;6.40;3.70;;;;;;;28.15;31.59;101153.61;117373;1185;24152;-54
2022/05/19 11:58:01;;;;;;;7.30;4.50;;;;;;;28.05;31.30;101158.98;117406;1182;21855;-57
2022/05/19 12:00:35;;;;;;;20.90;13.70;;;;;;;27.68;31.19;101165.51;117299;1185;23638;-55
2022/05/19 12:03:20;;;;;;;13.90;7.80;;;;;;;27.40;31.21;101160.26;117412;1185;22925;-55